Time;durP1;ratioP1;P1;durP2;ratioP2;P2;SDS_P1;SDS_P2;PMS_P1;PMS_P2;Temp;Humidity;BMP_temperature;BMP_pressure;BME280_temperature;BME280_humidity;BME280_pressure;Samples;Min_cycle;Max_cycle;Signal;HPM_P1;HPM_P2
2021/03/02 00:00:00;;;;;;;11.70;7.00;;;17.90;51.40;;;;;;5084676;28;20178;-50
2021/03/02 00:02:25;;;;;;;9.32;6.55;;;17.90;51.40;;;;;;5085390;28;20194;-55
2021/03/02 00:04:51;;;;;;;8.40;6.43;;;17.80;51.40;;;;;;5084252;28;20184;-54
2021/03/02 00:07:16;;;;;;;7.40;6.32;;;17.80;51.40;;;;;;5101348;28;20202;-55
2021/03/02 00:09:42;;;;;;;10.60;6.90;;;17.80;51.50;;;;;;5085508;28;20170;-59
2021/03/02 00:12:08;;;;;;;8.90;6.57;;;17.80;51.50;;;;;;5085356;28;20608;-57
2021/03/02 00:14:35;;;;;;;8.55;6.78;;;17.80;51.60;;;;;;5085734;28;20265;-58
2021/03/02 00:17:01;;;;;;;9.77;7.22;;;17.80;51.50;;;;;;5085623;28;20165;-58
2021/03/02 00:19:32;;;;;;;8.20;6.93;;;17.80;51.50;;;;;;5085457;28;20174;-58
2021/03/02 00:22:02;;;;;;;8.77;6.93;;;17.80;51.60;;;;;;5085280;28;20182;-58
2021/03/02 00:24:31;;;;;;;9.50;7.32;;;17.70;51.60;;;;;;5100629;28;20166;-60
2021/03/02 00:26:56;;;;;;;8.90;6.80;;;17.70;51.60;;;;;;5100782;28;20180;-59
2021/03/02 00:29:22;;;;;;;9.77;6.22;;;17.70;51.60;;;;;;5085103;28;20173;-56
2021/03/02 00:31:48;;;;;;;8.05;6.25;;;17.70;51.60;;;;;;5085417;28;20176;-56
2021/03/02 00:34:14;;;;;;;7.60;6.78;;;17.70;51.70;;;;;;5100662;28;20169;-54
2021/03/02 00:36:40;;;;;;;9.68;6.35;;;17.60;51.60;;;;;;5084826;28;20268;-57
2021/03/02 00:39:05;;;;;;;7.43;5.90;;;17.70;51.70;;;;;;5085204;28;20185;-56
2021/03/02 00:41:31;;;;;;;9.02;6.85;;;17.70;51.70;;;;;;5084774;28;20173;-55
2021/03/02 00:43:57;;;;;;;8.48;6.18;;;17.60;51.60;;;;;;5084721;28;20201;-61
2021/03/02 00:46:23;;;;;;;9.07;6.57;;;17.70;51.70;;;;;;5084866;28;20573;-59
2021/03/02 00:48:48;;;;;;;8.18;6.45;;;17.60;52.30;;;;;;5084812;28;20200;-58
2021/03/02 00:51:14;;;;;;;7.95;6.22;;;17.60;51.70;;;;;;5084904;28;20174;-58
2021/03/02 00:53:40;;;;;;;9.30;6.75;;;17.60;51.70;;;;;;5084800;28;20177;-57
2021/03/02 00:56:06;;;;;;;8.38;6.47;;;17.60;51.70;;;;;;5084557;28;20620;-57
2021/03/02 00:58:31;;;;;;;9.80;6.78;;;17.60;51.70;;;;;;5084802;28;20307;-58
2021/03/02 01:00:57;;;;;;;8.25;6.40;;;17.50;51.70;;;;;;5084633;28;20599;-58
2021/03/02 01:03:22;;;;;;;8.88;6.85;;;17.60;51.80;;;;;;5084858;28;20671;-57
2021/03/02 01:05:48;;;;;;;7.97;6.03;;;17.60;51.80;;;;;;5100552;28;20174;-60
2021/03/02 01:08:13;;;;;;;7.50;6.65;;;17.60;51.80;;;;;;5084552;28;20193;-56
2021/03/02 01:10:39;;;;;;;8.80;5.97;;;17.50;51.80;;;;;;5084482;28;20252;-58
2021/03/02 01:13:05;;;;;;;8.77;6.82;;;17.50;51.80;;;;;;5084462;28;20640;-60
2021/03/02 01:15:30;;;;;;;8.10;6.43;;;17.50;51.80;;;;;;5085002;28;20194;-60
2021/03/02 01:17:56;;;;;;;8.77;6.55;;;17.40;51.80;;;;;;5084623;28;20260;-59
2021/03/02 01:20:21;;;;;;;10.00;6.43;;;17.50;51.80;;;;;;5100093;28;20180;-57
2021/03/02 01:22:47;;;;;;;8.30;6.07;;;17.50;51.90;;;;;;5084023;28;20727;-60
2021/03/02 01:25:13;;;;;;;9.65;6.70;;;17.50;51.90;;;;;;5084782;28;20174;-58
2021/03/02 01:27:39;;;;;;;7.32;6.10;;;17.50;51.80;;;;;;5084861;28;20186;-57
2021/03/02 01:30:08;;;;;;;8.20;6.22;;;17.40;51.80;;;;;;5084572;28;20268;-57
2021/03/02 01:32:34;;;;;;;8.23;6.65;;;17.40;51.80;;;;;;5084053;28;20319;-58
2021/03/02 01:34:59;;;;;;;8.48;6.75;;;17.40;51.70;;;;;;5084057;28;20249;-58
2021/03/02 01:37:25;;;;;;;7.20;5.93;;;17.40;51.70;;;;;;5084316;28;20205;-56
2021/03/02 01:39:50;;;;;;;8.43;6.78;;;17.30;51.60;;;;;;5084360;28;20170;-57
2021/03/02 01:42:16;;;;;;;6.82;5.88;;;17.40;51.60;;;;;;5084165;28;21041;-56
2021/03/02 01:44:42;;;;;;;7.70;5.95;;;17.40;51.60;;;;;;5083988;28;20930;-58
2021/03/02 01:47:08;;;;;;;9.02;6.80;;;17.40;51.60;;;;;;5084038;28;20236;-55
2021/03/02 01:49:33;;;;;;;7.45;6.30;;;17.40;51.60;;;;;;5083895;28;21028;-60
2021/03/02 01:51:59;;;;;;;7.55;6.10;;;17.40;51.60;;;;;;5083014;28;20177;-60
2021/03/02 01:54:24;;;;;;;7.35;6.43;;;17.30;51.60;;;;;;5084133;28;20170;-59
2021/03/02 01:56:50;;;;;;;8.13;6.43;;;17.30;51.50;;;;;;5083773;28;20173;-60
2021/03/02 01:59:17;;;;;;;7.53;6.45;;;17.30;51.60;;;;;;5099810;28;20174;-53
2021/03/02 02:01:42;;;;;;;7.45;6.18;;;17.30;51.60;;;;;;5083853;28;20238;-53
2021/03/02 02:04:19;;;;;;;7.32;5.90;;;17.30;51.60;;;;;;5084203;28;20201;-54
2021/03/02 02:06:55;;;;;;;7.35;6.53;;;17.30;51.60;;;;;;5104382;28;20216;-59
2021/03/02 02:09:33;;;;;;;7.57;6.43;;;17.30;51.50;;;;;;5086211;28;20173;-60
2021/03/02 02:12:08;;;;;;;8.18;6.47;;;17.30;51.50;;;;;;5087769;28;20353;-57
2021/03/02 02:14:53;;;;;;;8.57;6.55;;;17.30;51.50;;;;;;5103669;28;20181;-60
2021/03/02 02:17:29;;;;;;;6.70;6.00;;;17.20;51.40;;;;;;5103527;28;20242;-54
2021/03/02 02:19:57;;;;;;;7.65;6.32;;;17.30;51.50;;;;;;5087937;28;20223;-58
2021/03/02 02:23:00;;;;;;;6.88;6.18;;;17.20;51.50;;;;;;5103487;28;20193;-59
2021/03/02 02:25:53;;;;;;;6.97;5.80;;;17.20;51.40;;;;;;5087647;28;20180;-59
2021/03/02 02:28:18;;;;;;;6.20;5.60;;;17.20;51.40;;;;;;5087436;28;20181;-58
2021/03/02 02:30:47;;;;;;;9.43;6.50;;;17.20;51.40;;;;;;5103623;28;20169;-55
2021/03/02 02:33:12;;;;;;;7.60;6.38;;;17.20;51.40;;;;;;5085624;28;20287;-57
2021/03/02 02:35:39;;;;;;;8.73;6.20;;;17.20;51.40;;;;;;5103052;28;20544;-56
2021/03/02 02:38:05;;;;;;;8.82;6.75;;;17.20;51.50;;;;;;5069166;28;20173;-56
2021/03/02 02:40:30;;;;;;;7.15;6.40;;;17.20;51.40;;;;;;5103426;28;20188;-59
2021/03/02 02:42:56;;;;;;;7.97;6.20;;;17.20;51.40;;;;;;5087583;28;20206;-57
2021/03/02 02:45:22;;;;;;;7.28;5.88;;;17.10;51.40;;;;;;5103111;28;20199;-59
2021/03/02 02:47:48;;;;;;;6.43;5.82;;;17.10;51.30;;;;;;5087454;28;20174;-59
2021/03/02 02:50:14;;;;;;;7.97;5.72;;;17.10;51.30;;;;;;5102937;28;20254;-56
2021/03/02 02:52:39;;;;;;;6.80;5.82;;;17.10;51.30;;;;;;5102842;28;20691;-59
2021/03/02 02:55:05;;;;;;;7.70;5.95;;;17.10;51.30;;;;;;5086055;28;20182;-58
2021/03/02 02:57:31;;;;;;;6.40;5.80;;;17.10;51.30;;;;;;5086292;28;20186;-59
2021/03/02 02:59:57;;;;;;;7.25;6.03;;;17.10;51.30;;;;;;5102926;28;20219;-59
2021/03/02 03:02:27;;;;;;;7.40;6.30;;;17.10;51.30;;;;;;5085957;28;20311;-53
2021/03/02 03:04:54;;;;;;;6.60;5.90;;;17.10;51.30;;;;;;5085566;28;20714;-59
2021/03/02 03:07:26;;;;;;;7.35;5.63;;;17.10;51.20;;;;;;5086824;28;20198;-58
2021/03/02 03:09:52;;;;;;;6.03;5.40;;;17.00;51.20;;;;;;5101537;28;20173;-55
2021/03/02 03:12:17;;;;;;;6.93;6.10;;;17.00;51.20;;;;;;5086738;28;20174;-57
2021/03/02 03:14:50;;;;;;;6.75;5.90;;;17.00;51.20;;;;;;5102106;28;20174;-57
2021/03/02 03:17:16;;;;;;;7.00;6.18;;;17.00;51.20;;;;;;5085015;28;20178;-57
2021/03/02 03:19:41;;;;;;;6.30;5.65;;;17.00;51.10;;;;;;5102281;28;20182;-57
2021/03/02 03:22:07;;;;;;;6.43;5.75;;;17.00;51.10;;;;;;5085035;28;20227;-57
2021/03/02 03:24:32;;;;;;;6.50;5.80;;;17.10;51.20;;;;;;5085439;28;20591;-57
2021/03/02 03:26:58;;;;;;;7.57;6.05;;;17.00;51.10;;;;;;5085227;28;20635;-55
2021/03/02 03:29:24;;;;;;;7.63;6.50;;;17.00;51.10;;;;;;5085180;28;20576;-57
2021/03/02 03:31:50;;;;;;;6.32;5.72;;;17.00;51.20;;;;;;5084873;28;20178;-53
2021/03/02 03:34:15;;;;;;;6.57;5.85;;;16.90;51.10;;;;;;5086189;28;20177;-56
2021/03/02 03:36:41;;;;;;;7.50;6.70;;;17.00;51.10;;;;;;5102264;28;20260;-54
2021/03/02 03:39:07;;;;;;;7.45;5.80;;;16.90;51.10;;;;;;5102156;28;20170;-55
2021/03/02 03:41:33;;;;;;;6.93;6.22;;;16.90;51.10;;;;;;5086226;28;20174;-60
2021/03/02 03:43:59;;;;;;;6.82;6.10;;;16.90;51.10;;;;;;5101571;28;20197;-57
2021/03/02 03:46:24;;;;;;;6.20;5.60;;;16.90;51.10;;;;;;5085753;28;20170;-59
2021/03/02 03:48:50;;;;;;;6.20;5.50;;;16.90;51.10;;;;;;5086218;28;20192;-58
2021/03/02 03:51:16;;;;;;;6.28;5.68;;;17.00;51.20;;;;;;5086125;28;20178;-57
2021/03/02 03:53:41;;;;;;;6.32;5.72;;;16.90;51.10;;;;;;5101387;28;20178;-58
2021/03/02 03:56:07;;;;;;;7.30;6.07;;;16.90;51.10;;;;;;5084792;28;20288;-58
2021/03/02 03:58:33;;;;;;;7.38;6.43;;;16.90;51.10;;;;;;5101526;28;20178;-59
2021/03/02 04:01:02;;;;;;;6.82;6.00;;;16.90;51.00;;;;;;5101582;28;20181;-54
2021/03/02 04:03:29;;;;;;;7.13;5.75;;;16.90;51.10;;;;;;5086098;28;20294;-58
2021/03/02 04:05:55;;;;;;;7.03;6.15;;;16.90;51.10;;;;;;5101596;28;20624;-58
2021/03/02 04:08:21;;;;;;;6.65;5.95;;;16.90;51.10;;;;;;5084614;28;20201;-56
2021/03/02 04:10:46;;;;;;;6.28;5.68;;;16.90;51.10;;;;;;5101271;28;20181;-56
2021/03/02 04:13:13;;;;;;;6.55;5.85;;;16.90;51.00;;;;;;5101198;28;20178;-59
2021/03/02 04:15:38;;;;;;;6.15;5.47;;;16.90;51.10;;;;;;5085643;28;20178;-54
2021/03/02 04:18:10;;;;;;;7.45;6.35;;;16.80;51.10;;;;;;5101234;28;20189;-60
2021/03/02 04:20:36;;;;;;;6.32;5.72;;;16.80;51.10;;;;;;5085659;28;20307;-57
2021/03/02 04:23:02;;;;;;;6.68;5.97;;;16.80;51.00;;;;;;5085297;28;20285;-53
2021/03/02 04:25:28;;;;;;;6.82;6.13;;;16.80;51.00;;;;;;5085585;28;20743;-55
2021/03/02 04:27:53;;;;;;;7.60;6.50;;;16.80;50.90;;;;;;5085077;28;20635;-59
2021/03/02 04:30:19;;;;;;;6.45;5.53;;;16.80;51.00;;;;;;5085512;28;20177;-58
2021/03/02 04:32:45;;;;;;;6.75;6.07;;;16.80;50.90;;;;;;5085324;28;20265;-58
2021/03/02 04:35:11;;;;;;;6.75;5.78;;;16.80;51.00;;;;;;5085351;28;20178;-52
2021/03/02 04:37:37;;;;;;;6.20;5.60;;;16.80;50.90;;;;;;5085422;28;20674;-56
2021/03/02 04:40:04;;;;;;;6.03;5.45;;;16.80;50.90;;;;;;5083515;28;20185;-59
2021/03/02 04:42:29;;;;;;;6.75;5.97;;;16.80;50.90;;;;;;5085345;28;20262;-59
2021/03/02 04:44:55;;;;;;;6.65;5.82;;;16.70;51.00;;;;;;5084800;28;20177;-56
2021/03/02 04:47:20;;;;;;;7.13;5.88;;;16.70;50.90;;;;;;5085210;28;20252;-57
2021/03/02 04:49:46;;;;;;;7.20;6.50;;;16.80;50.90;;;;;;5085243;28;20170;-59
2021/03/02 04:52:11;;;;;;;6.60;5.93;;;16.70;50.90;;;;;;5084996;28;20520;-57
2021/03/02 04:54:37;;;;;;;6.88;5.78;;;16.70;50.90;;;;;;5084988;28;20265;-53
2021/03/02 04:57:03;;;;;;;5.97;5.45;;;16.70;50.90;;;;;;5084585;28;20178;-59
2021/03/02 04:59:28;;;;;;;7.43;6.32;;;16.70;50.80;;;;;;5084937;28;20182;-54
2021/03/02 05:01:54;;;;;;;6.95;6.35;;;16.70;50.90;;;;;;5084901;28;20261;-57
2021/03/02 05:04:19;;;;;;;6.50;5.90;;;16.70;50.90;;;;;;5084328;28;20309;-54
2021/03/02 05:06:45;;;;;;;7.65;6.40;;;16.70;50.90;;;;;;5084607;28;20189;-54
2021/03/02 05:09:10;;;;;;;7.30;6.50;;;16.70;50.80;;;;;;5084767;28;21043;-57
2021/03/02 05:11:36;;;;;;;7.05;6.00;;;16.60;50.80;;;;;;5084444;28;20181;-51
2021/03/02 05:14:02;;;;;;;6.78;6.07;;;16.60;50.80;;;;;;5084232;28;20313;-57
2021/03/02 05:16:27;;;;;;;7.22;6.25;;;16.60;50.80;;;;;;5084598;28;20239;-57
2021/03/02 05:18:53;;;;;;;7.07;6.38;;;16.60;50.80;;;;;;5084466;28;20170;-57
2021/03/02 05:21:18;;;;;;;7.13;6.10;;;16.60;50.80;;;;;;5084225;28;20182;-55
2021/03/02 05:23:44;;;;;;;6.40;5.80;;;16.60;50.80;;;;;;5084199;28;20300;-53
2021/03/02 05:26:09;;;;;;;5.63;5.13;;;16.60;50.80;;;;;;5084130;28;21035;-56
2021/03/02 05:28:35;;;;;;;7.10;6.38;;;16.60;50.80;;;;;;5084188;28;20288;-59
2021/03/02 05:31:00;;;;;;;7.38;6.28;;;16.60;50.80;;;;;;5084382;28;20170;-55
2021/03/02 05:33:26;;;;;;;6.47;5.85;;;16.50;50.80;;;;;;5084482;28;20616;-53
2021/03/02 05:35:51;;;;;;;6.75;6.05;;;16.60;50.80;;;;;;5083836;28;20268;-57
2021/03/02 05:38:17;;;;;;;6.30;5.70;;;16.50;50.80;;;;;;5084167;28;20249;-52
2021/03/02 05:40:43;;;;;;;6.70;5.53;;;16.50;50.80;;;;;;5083802;28;20227;-55
2021/03/02 05:43:08;;;;;;;6.30;5.72;;;16.50;50.80;;;;;;5083982;28;20216;-61
2021/03/02 05:45:34;;;;;;;6.05;5.45;;;16.50;50.80;;;;;;5083614;28;20178;-60
2021/03/02 05:48:00;;;;;;;6.22;5.63;;;16.50;50.90;;;;;;5084236;28;20221;-58
2021/03/02 05:50:28;;;;;;;6.30;5.65;;;16.50;50.80;;;;;;5099982;28;20177;-56
2021/03/02 05:52:57;;;;;;;6.15;5.55;;;16.50;50.80;;;;;;5084267;28;20169;-56
2021/03/02 05:55:22;;;;;;;6.53;5.90;;;16.50;50.90;;;;;;5083872;28;20174;-58
2021/03/02 05:57:49;;;;;;;6.22;5.60;;;16.50;50.90;;;;;;5082477;28;20180;-53
2021/03/02 06:00:15;;;;;;;6.05;5.45;;;16.50;50.90;;;;;;5084172;28;20174;-56
2021/03/02 06:02:41;;;;;;;6.13;5.53;;;16.40;50.90;;;;;;5065628;28;20241;-55
2021/03/02 06:05:07;;;;;;;6.55;5.15;;;16.40;50.90;;;;;;5083841;28;20231;-58
2021/03/02 06:07:32;;;;;;;6.45;5.85;;;16.50;50.90;;;;;;5083939;28;20193;-55
2021/03/02 06:09:58;;;;;;;5.72;5.13;;;16.50;50.90;;;;;;5084099;28;20174;-54
2021/03/02 06:12:23;;;;;;;4.68;4.28;;;16.60;51.10;;;;;;5083593;28;20184;-57
2021/03/02 06:15:02;;;;;;;5.30;4.80;;;16.70;51.10;;;;;;5099705;28;20253;-56
2021/03/02 06:17:27;;;;;;;6.13;4.85;;;16.90;50.70;;;;;;5083477;28;20174;-57
2021/03/02 06:19:53;;;;;;;5.15;4.40;;;17.20;50.60;;;;;;5083900;28;20182;-54
2021/03/02 06:22:31;;;;;;;5.40;4.90;;;17.40;50.20;;;;;;5083770;28;20176;-55
2021/03/02 06:24:57;;;;;;;5.53;5.03;;;17.70;49.90;;;;;;5083708;28;20190;-60
2021/03/02 06:27:23;;;;;;;5.05;4.55;;;17.90;49.60;;;;;;5083905;28;20537;-58
2021/03/02 06:30:13;;;;;;;5.03;4.53;;;18.10;49.30;;;;;;5099637;28;20289;-59
2021/03/02 06:32:56;;;;;;;4.72;4.25;;;18.30;48.80;;;;;;5083722;28;20315;-52
2021/03/02 06:35:48;;;;;;;4.95;4.47;;;18.50;48.40;;;;;;5083362;28;20188;-56
2021/03/02 06:38:32;;;;;;;4.90;4.18;;;18.60;48.20;;;;;;5080475;28;20223;-54
2021/03/02 06:40:58;;;;;;;4.05;3.63;;;18.60;48.10;;;;;;5083989;28;20182;-57
2021/03/02 06:43:35;;;;;;;4.55;4.13;;;18.60;48.10;;;;;;5083769;28;20316;-58
2021/03/02 06:46:07;;;;;;;4.93;4.43;;;18.70;48.20;;;;;;5083534;28;20273;-59
2021/03/02 06:48:48;;;;;;;4.53;4.13;;;18.70;48.00;;;;;;5083375;28;20174;-60
2021/03/02 06:51:32;;;;;;;4.40;4.00;;;18.80;48.00;;;;;;5099607;28;20703;-58
2021/03/02 06:54:18;;;;;;;4.38;3.92;;;18.80;48.00;;;;;;5086936;28;20264;-57
2021/03/02 06:56:44;;;;;;;4.55;3.97;;;18.90;48.00;;;;;;5087380;28;20168;-57
2021/03/02 06:59:14;;;;;;;4.18;3.78;;;18.90;48.00;;;;;;5087136;28;20174;-61
2021/03/02 07:01:48;;;;;;;4.40;4.00;;;18.80;48.00;;;;;;5086664;28;20166;-58
2021/03/02 07:04:18;;;;;;;4.53;4.13;;;18.70;48.20;;;;;;5087007;28;20232;-58
2021/03/02 07:06:44;;;;;;;4.47;4.07;;;18.60;48.20;;;;;;5087059;28;20225;-59
2021/03/02 07:09:15;;;;;;;4.30;3.92;;;18.50;48.50;;;;;;5086798;28;20217;-56
2021/03/02 07:11:41;;;;;;;4.28;3.80;;;18.50;48.80;;;;;;5086654;28;20728;-57
2021/03/02 07:14:08;;;;;;;3.90;3.50;;;18.40;48.80;;;;;;5086738;28;20177;-59
2021/03/02 07:16:35;;;;;;;4.13;3.72;;;18.40;48.80;;;;;;5086530;28;20176;-60
2021/03/02 07:19:02;;;;;;;4.45;4.05;;;18.40;48.80;;;;;;5086620;28;20775;-57
2021/03/02 07:21:28;;;;;;;4.40;3.95;;;18.40;48.80;;;;;;5102464;28;20197;-61
2021/03/02 07:23:53;;;;;;;4.25;3.72;;;18.50;48.80;;;;;;5101594;28;20583;-58
2021/03/02 07:26:19;;;;;;;3.97;3.58;;;18.50;48.80;;;;;;5084879;28;20178;-58
2021/03/02 07:28:44;;;;;;;3.80;3.40;;;18.50;48.70;;;;;;5086257;28;20166;-58
2021/03/02 07:31:10;;;;;;;3.83;3.50;;;18.40;48.70;;;;;;5085300;28;20189;-58
2021/03/02 07:33:40;;;;;;;3.50;3.20;;;18.50;48.80;;;;;;5086188;28;20174;-56
2021/03/02 07:36:05;;;;;;;3.75;3.45;;;18.40;49.00;;;;;;5101893;28;20185;-58
2021/03/02 07:38:31;;;;;;;3.72;3.40;;;18.20;49.00;;;;;;5085021;28;20170;-56
2021/03/02 07:40:57;;;;;;;4.10;3.70;;;18.20;49.20;;;;;;5086024;28;20186;-58
2021/03/02 07:43:36;;;;;;;3.75;3.45;;;18.20;49.40;;;;;;5085928;28;20231;-56
2021/03/02 07:46:23;;;;;;;3.67;3.33;;;18.20;49.40;;;;;;5086369;28;20170;-56
2021/03/02 07:48:49;;;;;;;3.53;3.25;;;18.20;49.40;;;;;;5086619;28;20252;-61
2021/03/02 07:51:19;;;;;;;4.30;3.90;;;18.20;49.50;;;;;;5102209;28;20257;-59
2021/03/02 07:53:47;;;;;;;3.85;3.45;;;18.30;49.50;;;;;;5085971;28;20227;-61
2021/03/02 07:56:14;;;;;;;3.95;3.65;;;18.30;49.50;;;;;;5086183;28;20185;-59
2021/03/02 07:58:39;;;;;;;3.75;3.42;;;18.30;49.30;;;;;;5067212;28;20554;-61
2021/03/02 08:01:19;;;;;;;3.65;3.13;;;18.40;50.00;;;;;;5086195;28;20184;-57
2021/03/02 08:03:44;;;;;;;4.00;3.60;;;18.30;49.40;;;;;;5085212;28;20198;-60
2021/03/02 08:06:24;;;;;;;3.95;3.55;;;18.30;49.50;;;;;;5085601;28;20192;-60
2021/03/02 08:08:50;;;;;;;4.78;4.25;;;18.30;49.60;;;;;;5085874;28;20209;-62
2021/03/02 08:11:31;;;;;;;5.63;3.67;;;18.30;49.90;;;;;;5085916;28;20274;-63
2021/03/02 08:13:58;;;;;;;5.95;4.03;;;18.40;50.10;;;;;;5085803;28;20212;-63
2021/03/02 08:17:01;;;;;;;4.22;3.83;;;18.40;50.20;;;;;;5085321;28;20169;-62
2021/03/02 08:19:34;;;;;;;5.32;4.20;;;18.40;50.20;;;;;;5085269;28;20180;-62
2021/03/02 08:22:00;;;;;;;5.30;4.18;;;18.40;50.40;;;;;;5085673;28;20234;-63
2021/03/02 08:24:56;;;;;;;4.93;3.85;;;18.40;50.60;;;;;;5100880;28;20212;-62
2021/03/02 08:27:48;;;;;;;7.32;5.00;;;18.40;50.60;;;;;;5072192;28;20442;-63
2021/03/02 08:30:15;;;;;;;6.70;5.15;;;18.30;50.50;;;;;;5085511;28;20185;-62
2021/03/02 08:32:42;;;;;;;5.75;4.97;;;18.30;50.50;;;;;;5084719;28;20166;-60
2021/03/02 08:35:12;;;;;;;7.32;5.68;;;18.30;50.40;;;;;;5085333;28;20267;-60
2021/03/02 08:37:48;;;;;;;7.65;6.03;;;18.30;50.30;;;;;;5085332;28;20185;-60
2021/03/02 08:40:21;;;;;;;8.68;6.07;;;18.30;50.10;;;;;;5085132;28;20218;-59
2021/03/02 08:43:10;;;;;;;9.43;6.35;;;18.20;50.00;;;;;;5099999;28;20198;-59
2021/03/02 08:45:36;;;;;;;7.85;7.07;;;18.20;49.80;;;;;;5076403;28;20553;-59
2021/03/02 08:48:14;;;;;;;7.75;6.93;;;18.20;49.70;;;;;;5084628;28;20189;-61
2021/03/02 08:50:40;;;;;;;8.40;7.25;;;18.10;49.60;;;;;;5066419;28;20581;-63
2021/03/02 08:53:24;;;;;;;9.07;7.43;;;18.10;49.50;;;;;;5100527;28;20177;-63
2021/03/02 08:55:50;;;;;;;8.00;6.25;;;18.20;49.50;;;;;;5084680;28;20174;-62
2021/03/02 08:58:15;;;;;;;8.52;6.82;;;18.20;49.60;;;;;;5085027;28;20207;-63
2021/03/02 09:00:41;;;;;;;6.40;5.80;;;18.20;49.70;;;;;;5100250;28;20189;-62
2021/03/02 09:03:06;;;;;;;6.45;5.35;;;18.30;49.80;;;;;;5084716;28;20198;-63
2021/03/02 09:05:32;;;;;;;7.47;5.93;;;18.30;49.80;;;;;;5084717;28;20182;-65
2021/03/02 09:08:07;;;;;;;6.85;5.90;;;18.30;49.80;;;;;;5084500;28;20251;-61
2021/03/02 09:10:33;;;;;;;5.43;4.93;;;18.30;49.80;;;;;;5084160;28;20169;-63
2021/03/02 09:12:59;;;;;;;6.53;5.57;;;18.40;49.80;;;;;;5084136;28;20264;-65
2021/03/02 09:15:39;;;;;;;6.25;5.60;;;18.40;49.80;;;;;;5083593;28;20249;-63
2021/03/02 09:18:13;;;;;;;6.72;4.97;;;18.40;49.80;;;;;;5099471;28;20204;-62
2021/03/02 09:20:38;;;;;;;8.80;5.47;;;18.40;49.90;;;;;;5099686;28;20174;-63
2021/03/02 09:23:04;;;;;;;5.63;5.10;;;18.40;49.80;;;;;;5066113;28;20242;-62
2021/03/02 09:25:30;;;;;;;6.05;5.18;;;18.50;49.90;;;;;;5101717;28;20185;-63
2021/03/02 09:27:55;;;;;;;6.10;5.15;;;18.50;49.80;;;;;;5086803;28;20177;-63
2021/03/02 09:30:24;;;;;;;6.03;5.03;;;18.50;49.70;;;;;;5104543;28;20179;-63
2021/03/02 09:32:50;;;;;;;5.72;5.18;;;18.50;49.70;;;;;;5086743;28;20535;-62
2021/03/02 09:35:15;;;;;;;6.20;5.60;;;18.50;49.70;;;;;;5069425;28;20199;-62
2021/03/02 09:37:41;;;;;;;5.50;4.88;;;18.50;49.70;;;;;;5107943;28;20230;-63
2021/03/02 09:40:11;;;;;;;6.18;5.40;;;18.50;50.30;;;;;;5124128;28;20198;-62
2021/03/02 09:42:38;;;;;;;6.10;5.50;;;18.50;49.70;;;;;;5105676;28;20220;-63
2021/03/02 09:45:14;;;;;;;6.38;5.07;;;18.50;49.60;;;;;;5124481;28;20169;-64
2021/03/02 09:47:41;;;;;;;5.45;4.95;;;18.50;49.60;;;;;;5124693;28;20172;-62
2021/03/02 09:50:16;;;;;;;5.72;5.13;;;18.50;49.60;;;;;;5106580;28;20256;-63
2021/03/02 09:52:43;;;;;;;5.38;4.88;;;18.50;49.50;;;;;;5124963;28;20340;-62
2021/03/02 09:55:09;;;;;;;5.80;5.20;;;18.50;49.50;;;;;;5124042;28;20176;-62
2021/03/02 09:57:58;;;;;;;6.28;5.55;;;18.50;49.40;;;;;;5124580;28;20172;-64
2021/03/02 10:00:25;;;;;;;7.05;5.15;;;18.60;49.40;;;;;;5124641;28;20181;-63
2021/03/02 10:02:52;;;;;;;4.93;4.43;;;18.60;49.40;;;;;;5124465;28;20193;-62
2021/03/02 10:05:40;;;;;;;6.25;5.20;;;18.60;49.30;;;;;;5124716;28;20179;-63
2021/03/02 10:08:24;;;;;;;6.63;5.93;;;18.50;49.30;;;;;;5124569;28;20192;-62
2021/03/02 10:10:51;;;;;;;5.97;5.28;;;18.60;49.20;;;;;;5124612;28;20177;-63
2021/03/02 10:13:26;;;;;;;6.18;5.57;;;18.50;49.20;;;;;;5124912;28;20254;-64
2021/03/02 10:16:15;;;;;;;6.00;5.50;;;18.50;49.20;;;;;;5124452;28;20168;-62
2021/03/02 10:18:57;;;;;;;9.23;6.43;;;18.50;49.20;;;;;;5124640;28;20626;-60
2021/03/02 10:21:25;;;;;;;6.93;5.80;;;18.50;49.20;;;;;;5107802;28;20181;-62
2021/03/02 10:23:52;;;;;;;6.85;5.70;;;18.60;49.20;;;;;;5103172;28;20201;-60
2021/03/02 10:26:24;;;;;;;6.05;5.13;;;18.60;49.20;;;;;;5105584;28;20288;-60
2021/03/02 10:28:50;;;;;;;6.13;5.00;;;18.60;49.20;;;;;;5104325;28;20184;-61
2021/03/02 10:31:16;;;;;;;6.68;5.45;;;18.60;49.20;;;;;;5106940;28;20547;-62
2021/03/02 10:33:42;;;;;;;5.95;5.35;;;18.60;49.20;;;;;;5089140;28;20181;-61
2021/03/02 10:36:18;;;;;;;6.40;5.00;;;18.60;49.20;;;;;;5107666;28;20181;-61
2021/03/02 10:38:44;;;;;;;7.03;5.72;;;18.60;49.30;;;;;;5107534;28;20523;-63
2021/03/02 10:41:09;;;;;;;6.07;5.47;;;18.60;49.30;;;;;;5108162;28;20169;-63
2021/03/02 10:43:35;;;;;;;6.03;5.35;;;18.60;49.30;;;;;;5112557;27;20235;-62
2021/03/02 10:46:01;;;;;;;5.32;4.82;;;18.60;49.30;;;;;;5112319;27;20180;-62
2021/03/02 10:48:26;;;;;;;6.32;4.90;;;18.60;49.30;;;;;;5106714;27;20183;-62
2021/03/02 10:50:52;;;;;;;5.50;5.00;;;18.60;49.30;;;;;;5107375;28;20173;-64
2021/03/02 10:53:17;;;;;;;6.68;5.25;;;18.60;49.40;;;;;;5113110;27;20183;-63
2021/03/02 10:55:43;;;;;;;5.35;4.82;;;18.60;49.40;;;;;;5127967;27;21004;-62
2021/03/02 10:58:08;;;;;;;6.32;5.53;;;18.60;49.40;;;;;;5127937;27;20183;-62
2021/03/02 11:00:34;;;;;;;5.47;4.97;;;18.70;49.40;;;;;;5127688;27;20250;-62
2021/03/02 11:03:01;;;;;;;5.60;5.10;;;18.60;50.00;;;;;;5111723;27;20204;-62
2021/03/02 11:05:26;;;;;;;5.28;4.78;;;18.60;49.30;;;;;;5088572;28;20204;-61
2021/03/02 11:07:52;;;;;;;6.30;5.20;;;18.70;49.40;;;;;;5107260;28;20272;-63
2021/03/02 11:10:17;;;;;;;5.20;4.70;;;18.70;49.40;;;;;;5088415;28;20184;-63
2021/03/02 11:12:43;;;;;;;4.88;4.45;;;18.70;49.30;;;;;;5107196;28;20184;-64
2021/03/02 11:15:11;;;;;;;5.35;4.85;;;18.70;49.30;;;;;;5107156;28;20247;-63
2021/03/02 11:17:37;;;;;;;5.10;4.60;;;18.70;49.30;;;;;;5089129;28;20169;-64
2021/03/02 11:20:04;;;;;;;6.00;4.50;;;18.70;49.30;;;;;;5121854;27;20169;-61
2021/03/02 11:22:30;;;;;;;5.10;4.43;;;18.70;49.30;;;;;;5108663;27;21151;-61
2021/03/02 11:24:55;;;;;;;4.75;4.35;;;18.80;49.40;;;;;;5127576;27;20186;-62
2021/03/02 11:27:21;;;;;;;4.97;4.20;;;18.80;49.30;;;;;;5127205;27;20923;-63
2021/03/02 11:29:47;;;;;;;4.88;4.47;;;18.80;49.30;;;;;;5127214;27;20542;-62
2021/03/02 11:32:13;;;;;;;4.47;4.05;;;18.80;49.40;;;;;;5127080;27;20180;-63
2021/03/02 11:34:39;;;;;;;4.40;3.95;;;18.80;49.40;;;;;;5127294;27;20175;-62
2021/03/02 11:37:04;;;;;;;4.53;4.03;;;18.80;49.30;;;;;;5125689;27;20173;-62
2021/03/02 11:39:30;;;;;;;3.63;3.33;;;18.80;49.30;;;;;;5126881;27;20176;-62
2021/03/02 11:41:55;;;;;;;4.35;3.95;;;18.80;49.30;;;;;;5126899;27;21061;-60
2021/03/02 11:44:21;;;;;;;4.35;3.95;;;18.80;49.30;;;;;;5126907;27;20209;-58
2021/03/02 11:46:47;;;;;;;4.78;4.38;;;18.90;49.40;;;;;;5126668;27;20229;-59
2021/03/02 11:49:12;;;;;;;4.38;3.97;;;18.90;49.40;;;;;;5126678;27;20164;-61
2021/03/02 11:51:38;;;;;;;5.20;3.78;;;18.90;49.90;;;;;;5126877;27;20251;-60
2021/03/02 11:54:04;;;;;;;5.85;3.90;;;18.90;49.20;;;;;;5111729;27;20184;-60
2021/03/02 11:56:29;;;;;;;4.38;3.17;;;19.00;49.30;;;;;;5105848;28;20172;-61
2021/03/02 11:58:55;;;;;;;4.00;3.65;;;19.00;49.30;;;;;;5106310;28;20252;-64
2021/03/02 12:01:20;;;;;;;5.60;3.50;;;19.00;49.30;;;;;;5106187;28;20184;-61
2021/03/02 12:03:46;;;;;;;3.88;3.47;;;19.00;49.40;;;;;;5106179;28;20223;-61
2021/03/02 12:06:12;;;;;;;3.53;3.22;;;19.10;49.40;;;;;;5105746;28;20173;-63
2021/03/02 12:08:37;;;;;;;4.60;3.17;;;19.00;49.40;;;;;;5105886;28;20185;-62
2021/03/02 12:11:03;;;;;;;6.45;3.47;;;19.00;49.40;;;;;;5087743;28;20268;-62
2021/03/02 12:13:28;;;;;;;6.03;4.03;;;19.10;49.50;;;;;;5106153;28;20195;-62
2021/03/02 12:15:55;;;;;;;4.00;3.60;;;19.10;49.60;;;;;;5106022;28;20248;-63
2021/03/02 12:18:21;;;;;;;3.83;3.47;;;19.10;49.50;;;;;;5105882;28;20696;-60
2021/03/02 12:20:46;;;;;;;3.72;3.42;;;19.00;49.60;;;;;;5105979;28;20255;-59
2021/03/02 12:23:12;;;;;;;4.82;3.67;;;19.10;49.60;;;;;;5105904;28;20721;-58
2021/03/02 12:25:38;;;;;;;4.20;3.63;;;19.00;49.50;;;;;;5105477;28;20177;-60
2021/03/02 12:28:03;;;;;;;5.03;4.00;;;19.00;49.40;;;;;;5105934;28;20248;-59
2021/03/02 12:30:29;;;;;;;4.13;3.72;;;19.00;49.40;;;;;;5105726;28;20208;-59
2021/03/02 12:32:55;;;;;;;3.65;3.33;;;18.90;49.40;;;;;;5105945;28;20178;-60
2021/03/02 12:35:20;;;;;;;3.75;3.45;;;18.90;49.40;;;;;;5087600;28;20184;-59
2021/03/02 12:37:46;;;;;;;5.20;3.50;;;19.00;49.30;;;;;;5105386;28;20178;-58
2021/03/02 12:40:12;;;;;;;4.50;3.53;;;18.90;49.20;;;;;;5105706;28;20183;-60
2021/03/02 12:42:37;;;;;;;4.18;3.78;;;18.90;49.20;;;;;;5105550;28;20295;-60
2021/03/02 12:45:04;;;;;;;4.38;3.97;;;18.90;49.20;;;;;;5105509;28;20192;-59
2021/03/02 12:47:29;;;;;;;4.68;4.18;;;18.90;49.20;;;;;;5105367;28;21008;-57
2021/03/02 12:49:55;;;;;;;4.68;4.00;;;18.90;49.10;;;;;;5105163;28;20176;-59